createdAt,value
2023-05-25T00:02:04.922Z,12.73
2023-05-25T00:04:11.868Z,12.05
2023-05-25T00:06:18.684Z,15.05
2023-05-25T00:08:30.358Z,13.57
2023-05-25T00:10:35.894Z,11.52
2023-05-25T00:12:42.359Z,15.25
2023-05-25T00:14:48.962Z,12.27
2023-05-25T00:17:19.156Z,12.45
2023-05-25T00:19:26.974Z,17.08
2023-05-25T00:21:34.352Z,13.88
2023-05-25T00:23:40.192Z,12.40
2023-05-25T00:25:47.263Z,12.27
2023-05-25T00:27:53.388Z,15.93
2023-05-25T00:29:59.342Z,12.52
2023-05-25T00:32:11.120Z,17.48
2023-05-25T00:34:22.105Z,14.57
2023-05-25T00:36:33.559Z,10.63
2023-05-25T00:38:39.127Z,12.00
2023-05-25T00:40:45.979Z,14.02
2023-05-25T00:42:52.629Z,11.00
2023-05-25T00:44:58.382Z,11.80
2023-05-25T00:47:08.628Z,8.57
2023-05-25T00:49:28.308Z,11.32
2023-05-25T00:51:36.648Z,12.57
2023-05-25T00:53:42.767Z,9.23
2023-05-25T00:55:53.187Z,13.82
2023-05-25T00:58:03.616Z,7.07
2023-05-25T01:00:14.492Z,9.40
2023-05-25T01:02:24.594Z,12.75
2023-05-25T01:04:38.262Z,10.18
2023-05-25T01:06:54.035Z,13.88
2023-05-25T01:09:06.046Z,10.02
2023-05-25T01:11:17.121Z,14.52
2023-05-25T01:13:27.244Z,14.15
2023-05-25T01:15:35.394Z,12.25
2023-05-25T01:17:42.563Z,8.18
2023-05-25T01:20:09.105Z,13.18
2023-05-25T01:22:32.429Z,12.93
2023-05-25T01:24:53.008Z,13.55
2023-05-25T01:27:07.357Z,12.02
2023-05-25T01:29:16.338Z,14.82
2023-05-25T01:31:25.350Z,12.52
2023-05-25T01:33:33.996Z,9.50
2023-05-25T01:35:44.389Z,12.52
2023-05-25T01:37:54.667Z,13.20
2023-05-25T01:40:00.377Z,11.80
2023-05-25T01:42:08.584Z,14.60
2023-05-25T01:44:14.395Z,8.05
2023-05-25T01:46:37.315Z,10.75
2023-05-25T01:48:56.926Z,9.88
2023-05-25T01:51:14.565Z,13.52
2023-05-25T01:53:25.582Z,11.57
2023-05-25T01:55:35.565Z,11.25
2023-05-25T01:57:45.611Z,7.50
2023-05-25T01:59:55.987Z,11.15
2023-05-25T02:02:13.081Z,11.15
2023-05-25T02:04:20.324Z,9.87
2023-05-25T02:06:36.735Z,8.57
2023-05-25T02:08:47.964Z,9.30
2023-05-25T02:10:53.614Z,11.88
2023-05-25T02:12:59.394Z,11.35
2023-05-25T02:15:05.069Z,12.38
2023-05-25T02:17:22.314Z,9.95
2023-05-25T02:19:28.117Z,15.63
2023-05-25T02:21:36.809Z,12.80
2023-05-25T02:23:42.943Z,10.73
2023-05-25T02:26:15.572Z,13.13
2023-05-25T02:28:22.218Z,10.10
2023-05-25T02:30:28.739Z,11.55
2023-05-25T02:32:38.829Z,7.68
2023-05-25T02:34:44.376Z,11.88
2023-05-25T02:36:56.160Z,7.75
2023-05-25T02:39:04.610Z,11.80
2023-05-25T02:41:14.977Z,13.05
2023-05-25T02:43:20.468Z,14.32
2023-05-25T02:45:27.966Z,13.73
2023-05-25T02:47:33.392Z,9.43
2023-05-25T02:49:38.873Z,11.65
2023-05-25T02:51:51.863Z,13.18
2023-05-25T02:54:00.277Z,9.57
2023-05-25T02:56:07.311Z,9.38
2023-05-25T02:58:16.804Z,15.50
2023-05-25T03:01:00.730Z,12.75
2023-05-25T03:03:12.751Z,12.52
2023-05-25T03:05:21.086Z,11.25
2023-05-25T03:07:32.317Z,12.68
2023-05-25T03:09:38.138Z,11.90
2023-05-25T03:11:43.548Z,13.90
2023-05-25T03:13:56.104Z,11.25
2023-05-25T03:16:07.752Z,10.95
2023-05-25T03:18:13.324Z,13.50
2023-05-25T03:20:21.733Z,13.85
2023-05-25T03:22:27.543Z,14.27
2023-05-25T03:24:33.475Z,8.27
2023-05-25T03:26:43.228Z,11.05
2023-05-25T03:28:49.058Z,12.30
2023-05-25T03:31:14.573Z,12.52
2023-05-25T03:33:20.233Z,12.93
2023-05-25T03:35:27.734Z,10.65
2023-05-25T03:37:33.423Z,13.77
2023-05-25T03:39:38.943Z,10.85
2023-05-25T03:41:44.863Z,16.75
2023-05-25T03:43:58.342Z,12.32
2023-05-25T03:46:11.817Z,11.60
2023-05-25T03:48:17.533Z,9.63
2023-05-25T03:50:23.651Z,16.17
2023-05-25T03:52:31.413Z,11.32
2023-05-25T03:54:37.510Z,12.23
2023-05-25T03:56:42.918Z,11.05
2023-05-25T03:58:52.280Z,8.90
2023-05-25T04:00:59.091Z,15.90
2023-05-25T04:03:14.474Z,13.82
2023-05-25T04:05:20.359Z,9.65
2023-05-25T04:07:37.514Z,15.63
2023-05-25T04:09:47.354Z,14.82
2023-05-25T04:11:56.840Z,11.65
2023-05-25T04:14:02.935Z,13.73
2023-05-25T04:16:22.162Z,9.93
2023-05-25T04:18:30.459Z,18.52
2023-05-25T04:20:36.109Z,13.40
2023-05-25T04:22:44.050Z,11.45
2023-05-25T04:24:51.119Z,11.73
2023-05-25T04:27:07.715Z,11.52
2023-05-25T04:29:14.412Z,9.55
2023-05-25T04:31:45.917Z,9.85
2023-05-25T04:33:56.613Z,12.27
2023-05-25T04:36:11.281Z,11.40
2023-05-25T04:38:18.414Z,9.98
2023-05-25T04:40:24.033Z,13.63
2023-05-25T04:42:29.789Z,9.38
2023-05-25T04:44:36.305Z,11.23
2023-05-25T04:46:44.814Z,12.00
2023-05-25T04:48:59.175Z,10.52
2023-05-25T04:51:08.535Z,12.70
2023-05-25T04:53:14.610Z,10.73
2023-05-25T04:55:20.342Z,13.55
2023-05-25T04:57:31.716Z,16.97
2023-05-25T04:59:38.666Z,11.48
2023-05-25T05:01:44.912Z,13.82
2023-05-25T05:06:06.108Z,11.65
2023-05-25T05:08:12.530Z,14.77
2023-05-25T05:10:26.471Z,16.25
2023-05-25T05:12:36.235Z,16.92
2023-05-25T05:14:55.589Z,17.27
2023-05-25T05:17:01.892Z,13.57
2023-05-25T05:19:14.030Z,16.90
2023-05-25T05:21:23.477Z,16.85
2023-05-25T05:23:37.768Z,19.17
2023-05-25T05:25:44.305Z,14.50
2023-05-25T05:27:50.182Z,18.10
2023-05-25T05:30:02.687Z,14.00
2023-05-25T05:32:10.083Z,22.27
2023-05-25T05:34:16.903Z,13.45
2023-05-25T05:36:25.374Z,13.10
2023-05-25T05:38:31.232Z,14.77
2023-05-25T05:40:43.075Z,15.57
2023-05-25T05:42:51.552Z,35.85
2023-05-25T05:44:58.109Z,16.77
2023-05-25T05:47:26.291Z,17.58
2023-05-25T05:51:40.980Z,15.80
2023-05-25T05:53:48.735Z,14.32
2023-05-25T05:58:11.368Z,14.65
2023-05-25T06:00:19.085Z,14.75
2023-05-25T06:02:27.896Z,18.38
2023-05-25T06:04:39.191Z,17.48
2023-05-25T06:06:48.437Z,17.13
2023-05-25T06:08:55.225Z,18.48
2023-05-25T06:11:01.002Z,17.65
2023-05-25T06:13:07.607Z,15.25
2023-05-25T06:15:15.673Z,17.20
2023-05-25T06:17:21.782Z,21.45
2023-05-25T06:19:39.065Z,17.90
2023-05-25T06:21:49.703Z,15.30
2023-05-25T06:24:03.437Z,17.55
2023-05-25T06:26:12.532Z,14.27
2023-05-25T06:28:21.852Z,15.27
2023-05-25T06:30:28.331Z,13.23
2023-05-25T06:32:33.959Z,14.48
2023-05-25T06:34:39.518Z,14.70
2023-05-25T06:36:51.984Z,15.52
2023-05-25T06:39:01.120Z,19.02
2023-05-25T06:41:10.555Z,16.88
2023-05-25T06:45:34.646Z,20.55
2023-05-25T06:47:40.426Z,15.57
2023-05-25T06:49:56.719Z,16.92
2023-05-25T06:52:04.789Z,17.20
2023-05-25T06:54:12.135Z,19.50
2023-05-25T06:56:28.267Z,14.68
2023-05-25T06:58:33.709Z,20.23
2023-05-25T07:00:42.266Z,17.50
2023-05-25T07:02:48.977Z,17.67
2023-05-25T07:04:57.128Z,15.02
2023-05-25T07:07:05.281Z,14.23
2023-05-25T07:09:10.773Z,18.73
2023-05-25T07:11:20.811Z,17.27
2023-05-25T07:13:27.527Z,13.50
2023-05-25T07:15:33.829Z,16.98
2023-05-25T07:17:39.557Z,15.93
2023-05-25T07:20:13.849Z,16.92
2023-05-25T07:22:23.747Z,17.42
2023-05-25T07:24:29.184Z,17.70
2023-05-25T07:26:35.498Z,16.10
2023-05-25T07:28:40.947Z,19.08
2023-05-25T07:30:46.431Z,13.55
2023-05-25T07:32:55.517Z,14.02
2023-05-25T07:35:17.109Z,13.35
2023-05-25T07:37:29.581Z,12.70
2023-05-25T07:39:36.629Z,15.02
2023-05-25T07:41:42.886Z,13.65
2023-05-25T07:43:49.781Z,11.45
2023-05-25T07:45:57.706Z,11.50
2023-05-25T07:48:07.974Z,13.15
2023-05-25T07:50:14.388Z,11.40
2023-05-25T07:52:20.169Z,13.40
2023-05-25T07:54:28.729Z,12.50
2023-05-25T07:56:34.178Z,17.20
2023-05-25T07:58:40.698Z,11.57
2023-05-25T08:00:55.719Z,15.02
2023-05-25T08:03:04.318Z,13.45
2023-05-25T08:05:10.699Z,10.77
2023-05-25T08:07:18.372Z,13.15
2023-05-25T08:09:24.323Z,13.25
2023-05-25T08:11:34.221Z,13.80
2023-05-25T08:13:42.327Z,11.10
2023-05-25T08:15:49.871Z,12.30
2023-05-25T08:20:06.324Z,12.35
2023-05-25T08:22:12.162Z,10.45
2023-05-25T08:24:24.963Z,11.77
2023-05-25T08:26:53.335Z,15.50
2023-05-25T08:29:01.041Z,10.82
2023-05-25T08:31:07.445Z,10.02
2023-05-25T08:33:13.914Z,10.65
2023-05-25T08:35:19.895Z,11.52
2023-05-25T08:37:26.462Z,8.38
2023-05-25T08:39:42.109Z,10.68
2023-05-25T08:41:51.141Z,12.23
2023-05-25T08:43:58.688Z,10.18
2023-05-25T08:46:09.157Z,8.88
2023-05-25T08:48:39.468Z,12.52
2023-05-25T08:50:49.505Z,12.63
2023-05-25T08:52:56.185Z,10.18
2023-05-25T08:55:07.161Z,11.07
2023-05-25T08:57:28.513Z,9.88
2023-05-25T08:59:41.042Z,12.85
2023-05-25T09:01:51.289Z,9.85
2023-05-25T09:03:59.570Z,13.18
2023-05-25T09:06:13.201Z,10.35
2023-05-25T09:08:21.921Z,9.98
2023-05-25T09:10:30.034Z,11.30
2023-05-25T09:12:39.337Z,11.50
2023-05-25T09:14:49.506Z,10.32
2023-05-25T09:17:03.129Z,10.23
2023-05-25T09:19:08.640Z,11.40
2023-05-25T09:21:14.883Z,11.30
2023-05-25T09:23:21.628Z,15.07
2023-05-25T09:25:29.409Z,10.13
2023-05-25T09:29:44.193Z,7.80
2023-05-25T09:31:57.320Z,10.85
2023-05-25T09:34:04.188Z,9.88
2023-05-25T09:36:28.947Z,10.20
2023-05-25T09:38:35.452Z,9.60
2023-05-25T09:40:51.858Z,7.93
2023-05-25T09:43:01.993Z,8.57
2023-05-25T09:45:12.229Z,10.45
2023-05-25T09:47:20.948Z,9.27
2023-05-25T09:49:27.483Z,10.15
2023-05-25T09:51:34.442Z,9.98
2023-05-25T09:53:39.861Z,9.50
2023-05-25T09:55:54.648Z,9.50
2023-05-25T09:58:04.351Z,7.82
2023-05-25T10:00:12.059Z,11.55
2023-05-25T10:04:27.774Z,10.82
2023-05-25T10:06:34.838Z,9.55
2023-05-25T10:08:40.622Z,13.30
2023-05-25T10:10:46.872Z,10.13
2023-05-25T10:13:02.554Z,10.90
2023-05-25T10:15:16.599Z,7.10
2023-05-25T10:17:27.179Z,10.25
2023-05-25T10:19:42.332Z,8.13
2023-05-25T10:22:01.931Z,10.80
2023-05-25T10:24:09.820Z,8.57
2023-05-25T10:26:22.583Z,11.98
2023-05-25T10:28:33.146Z,7.85
2023-05-25T10:30:43.989Z,7.15
2023-05-25T10:32:51.175Z,7.03
2023-05-25T10:34:58.433Z,8.50
2023-05-25T10:37:08.405Z,7.88
2023-05-25T10:39:14.451Z,10.73
2023-05-25T10:41:21.287Z,11.63
2023-05-25T10:43:27.179Z,13.38
2023-05-25T10:45:33.200Z,12.25
2023-05-25T10:47:46.641Z,8.68
2023-05-25T10:49:57.886Z,10.23
2023-05-25T10:52:05.262Z,9.75
2023-05-25T10:54:10.847Z,9.65
2023-05-25T10:56:20.603Z,10.85
2023-05-25T10:58:29.777Z,9.23
2023-05-25T11:00:35.529Z,13.18
2023-05-25T11:03:00.452Z,7.85
2023-05-25T11:05:34.358Z,10.15
2023-05-25T11:07:59.829Z,8.88
2023-05-25T11:10:05.252Z,10.85
2023-05-25T11:12:11.299Z,8.38
2023-05-25T11:14:25.133Z,7.15
2023-05-25T11:16:37.991Z,9.57
2023-05-25T11:18:48.415Z,8.68
2023-05-25T11:21:16.835Z,10.13
2023-05-25T11:23:37.456Z,8.65
2023-05-25T11:25:45.520Z,16.70
2023-05-25T11:27:51.166Z,12.13
2023-05-25T11:29:57.967Z,10.30
2023-05-25T11:32:03.524Z,10.55
2023-05-25T11:34:14.736Z,9.82
2023-05-25T11:36:23.281Z,8.65
2023-05-25T11:38:28.770Z,9.95
2023-05-25T11:40:40.658Z,7.30
2023-05-25T11:42:49.733Z,7.63
2023-05-25T11:44:55.900Z,11.55
2023-05-25T11:47:15.765Z,12.23
2023-05-25T11:49:33.120Z,8.48
2023-05-25T11:53:47.192Z,8.75
2023-05-25T11:56:00.574Z,11.77
2023-05-25T11:58:15.759Z,10.98
2023-05-25T12:00:29.707Z,10.48
2023-05-25T12:02:49.297Z,11.35
2023-05-25T12:05:04.450Z,6.82
2023-05-25T12:07:13.142Z,12.52
2023-05-25T12:09:28.590Z,10.18
2023-05-25T12:11:35.694Z,8.63
2023-05-25T12:13:44.957Z,8.48
2023-05-25T12:15:50.748Z,8.30
2023-05-25T12:17:57.179Z,12.68
2023-05-25T12:20:08.288Z,8.10
2023-05-25T12:22:18.301Z,10.20
2023-05-25T12:24:26.847Z,7.40
2023-05-25T12:26:32.400Z,8.18
2023-05-25T12:28:45.682Z,10.68
2023-05-25T12:30:51.087Z,9.38
2023-05-25T12:32:58.558Z,7.47
2023-05-25T12:35:10.851Z,6.07
2023-05-25T12:37:30.102Z,7.88
2023-05-25T12:39:39.784Z,8.43
2023-05-25T12:42:03.487Z,10.40
2023-05-25T12:44:23.036Z,7.47
2023-05-25T12:46:33.660Z,7.53
2023-05-25T12:48:40.989Z,8.10
2023-05-25T12:53:10.876Z,7.53
2023-05-25T12:55:30.887Z,7.63
2023-05-25T12:57:38.240Z,11.48
2023-05-25T12:59:45.151Z,6.32
2023-05-25T13:01:50.914Z,8.75
2023-05-25T13:03:58.930Z,11.02
2023-05-25T13:06:14.661Z,9.45
2023-05-25T13:08:24.137Z,7.93
2023-05-25T13:10:31.269Z,10.68
2023-05-25T13:12:37.756Z,8.10
2023-05-25T13:14:43.114Z,7.05
2023-05-25T13:16:51.906Z,7.20
2023-05-25T13:18:57.629Z,8.57
2023-05-25T13:21:17.073Z,8.93
2023-05-25T13:23:27.405Z,10.23
2023-05-25T13:25:32.900Z,8.43
2023-05-25T13:27:42.379Z,9.98
2023-05-25T13:29:54.989Z,7.47
2023-05-25T13:32:07.274Z,8.32
2023-05-25T13:34:12.792Z,6.82
2023-05-25T13:36:23.022Z,8.15
2023-05-25T13:38:31.266Z,6.95
2023-05-25T13:40:40.981Z,8.63
2023-05-25T13:42:50.125Z,6.60
2023-05-25T13:44:56.165Z,8.70
2023-05-25T13:47:05.415Z,6.38
2023-05-25T13:49:19.885Z,8.10
2023-05-25T13:51:28.281Z,7.38
2023-05-25T13:53:36.993Z,6.38
2023-05-25T13:55:43.775Z,7.03
2023-05-25T13:57:52.913Z,7.85
2023-05-25T13:59:58.296Z,9.20
2023-05-25T14:02:05.825Z,5.32
2023-05-25T14:04:26.036Z,8.73
2023-05-25T14:06:40.761Z,8.07
2023-05-25T14:08:48.711Z,6.85
2023-05-25T14:10:55.137Z,9.52
2023-05-25T14:13:00.617Z,8.95
2023-05-25T14:15:08.334Z,6.65
2023-05-25T14:17:21.299Z,8.38
2023-05-25T14:19:26.649Z,7.28
2023-05-25T14:21:33.110Z,8.15
2023-05-25T14:25:52.114Z,7.97
2023-05-25T14:28:07.976Z,8.40
2023-05-25T14:30:14.666Z,9.50
2023-05-25T14:32:22.115Z,7.50
2023-05-25T14:34:30.496Z,6.63
2023-05-25T14:36:35.998Z,8.48
2023-05-25T14:38:41.696Z,10.70
2023-05-25T14:40:50.012Z,8.57
2023-05-25T14:43:02.827Z,10.63
2023-05-25T14:45:11.262Z,9.65
2023-05-25T14:47:22.516Z,9.45
2023-05-25T14:49:27.972Z,9.45
2023-05-25T14:51:33.670Z,10.25
2023-05-25T14:53:41.226Z,8.13
2023-05-25T14:55:59.095Z,8.00
2023-05-25T14:58:08.732Z,11.50
2023-05-25T15:00:15.602Z,7.68
2023-05-25T15:02:23.102Z,7.90
2023-05-25T15:04:31.084Z,6.47
2023-05-25T15:06:39.267Z,9.63
2023-05-25T15:08:44.797Z,10.68
2023-05-25T15:10:55.008Z,7.80
2023-05-25T15:13:02.881Z,12.18
2023-05-25T15:15:09.461Z,6.78
2023-05-25T15:17:21.459Z,6.63
2023-05-25T15:19:29.231Z,7.07
2023-05-25T15:21:34.840Z,7.15
2023-05-25T15:23:41.893Z,8.17
2023-05-25T15:27:57.830Z,8.90
2023-05-25T15:30:04.377Z,9.68
2023-05-25T15:32:13.386Z,11.77
2023-05-25T15:34:20.769Z,8.38
2023-05-25T15:36:26.142Z,7.88
2023-05-25T15:38:31.504Z,6.65
2023-05-25T15:40:46.298Z,9.02
2023-05-25T15:43:01.368Z,10.15
2023-05-25T15:45:20.296Z,5.72
2023-05-25T15:47:32.121Z,9.02
2023-05-25T15:49:38.447Z,8.15
2023-05-25T15:51:44.789Z,9.43
2023-05-25T15:53:52.484Z,9.20
2023-05-25T15:56:02.759Z,6.93
2023-05-25T15:58:08.124Z,8.38
2023-05-25T16:00:19.505Z,7.32
2023-05-25T16:02:24.926Z,7.57
2023-05-25T16:04:30.631Z,10.63
2023-05-25T16:06:42.937Z,8.82
2023-05-25T16:08:48.279Z,6.68
2023-05-25T16:10:55.337Z,8.35
2023-05-25T16:13:00.730Z,9.82
2023-05-25T16:15:06.805Z,9.50
2023-05-25T16:17:30.030Z,10.10
2023-05-25T16:19:35.456Z,7.03
2023-05-25T16:21:43.152Z,6.88
2023-05-25T16:23:50.802Z,7.82
2023-05-25T16:26:02.906Z,8.73
2023-05-25T16:28:08.817Z,9.98
2023-05-25T16:30:15.204Z,7.50
2023-05-25T16:32:24.018Z,6.53
2023-05-25T16:34:31.286Z,8.48
2023-05-25T16:36:36.906Z,8.25
2023-05-25T16:38:42.351Z,7.85
2023-05-25T16:41:07.709Z,10.30
2023-05-25T16:43:13.061Z,9.70
2023-05-25T16:45:20.749Z,9.98
2023-05-25T16:47:38.658Z,8.35
2023-05-25T16:49:44.113Z,10.68
2023-05-25T16:51:49.660Z,10.82
2023-05-25T16:53:56.204Z,9.15
2023-05-25T16:56:03.265Z,6.65
2023-05-25T16:58:08.678Z,9.05
2023-05-25T17:00:19.186Z,8.30
2023-05-25T17:02:25.317Z,8.40
2023-05-25T17:04:34.751Z,9.63
2023-05-25T17:06:42.071Z,7.07
2023-05-25T17:08:47.581Z,7.15
2023-05-25T17:10:57.562Z,9.30
2023-05-25T17:13:02.947Z,7.82
2023-05-25T17:15:11.302Z,8.48
2023-05-25T17:17:29.099Z,7.80
2023-05-25T17:19:38.853Z,8.75
2023-05-25T17:21:44.371Z,6.95
2023-05-25T17:23:49.941Z,7.30
2023-05-25T17:26:05.316Z,9.52
2023-05-25T17:28:11.008Z,7.70
2023-05-25T17:30:17.108Z,7.93
2023-05-25T17:32:22.477Z,8.35
2023-05-25T17:34:28.106Z,9.50
2023-05-25T17:36:37.334Z,7.25
2023-05-25T17:38:49.225Z,8.30
2023-05-25T17:40:54.565Z,8.50
2023-05-25T17:42:59.946Z,11.30
2023-05-25T17:45:10.668Z,8.52
2023-05-25T17:47:20.215Z,9.90
2023-05-25T17:49:28.098Z,7.65
2023-05-25T17:51:37.660Z,7.45
2023-05-25T17:53:43.355Z,7.78
2023-05-25T17:57:52.793Z,7.38
2023-05-25T18:00:00.271Z,9.63
2023-05-25T18:02:07.333Z,7.80
2023-05-25T18:04:13.022Z,7.63
2023-05-25T18:06:27.184Z,9.10
2023-05-25T18:08:42.185Z,8.15
2023-05-25T18:10:47.677Z,10.65
2023-05-25T18:12:54.697Z,9.43
2023-05-25T18:15:00.112Z,10.18
2023-05-25T18:17:09.564Z,9.68
2023-05-25T18:19:20.598Z,11.05
2023-05-25T18:21:26.732Z,9.77
2023-05-25T18:23:32.867Z,7.38
2023-05-25T18:25:42.818Z,7.75
2023-05-25T18:27:49.028Z,7.63
2023-05-25T18:29:54.828Z,10.18
2023-05-25T18:32:03.450Z,9.82
2023-05-25T18:34:09.644Z,7.82
2023-05-25T18:36:18.765Z,11.55
2023-05-25T18:38:24.164Z,8.02
2023-05-25T18:40:29.583Z,10.18
2023-05-25T18:42:43.630Z,13.52
2023-05-25T18:44:50.039Z,10.30
2023-05-25T18:47:07.002Z,9.35
2023-05-25T18:49:12.627Z,11.60
2023-05-25T18:51:23.216Z,9.68
2023-05-25T18:53:28.962Z,9.88
2023-05-25T18:55:34.599Z,10.07
2023-05-25T18:57:45.362Z,10.10
2023-05-25T18:59:50.761Z,9.93
2023-05-25T19:02:02.517Z,11.15
2023-05-25T19:04:08.018Z,13.77
2023-05-25T19:06:16.472Z,11.40
2023-05-25T19:08:22.017Z,11.73
2023-05-25T19:10:29.595Z,9.55
2023-05-25T19:14:45.277Z,10.18
2023-05-25T19:16:59.826Z,10.23
2023-05-25T19:19:06.755Z,9.48
2023-05-25T19:21:12.133Z,9.60
2023-05-25T19:23:20.552Z,16.13
2023-05-25T19:25:26.253Z,15.90
2023-05-25T19:27:33.513Z,14.88
2023-05-25T19:29:39.008Z,16.08
2023-05-25T19:32:03.118Z,7.32
2023-05-25T19:34:08.819Z,9.77
2023-05-25T19:36:25.211Z,11.27
2023-05-25T19:38:40.366Z,10.80
2023-05-25T19:40:48.829Z,11.40
2023-05-25T19:42:54.196Z,10.35
2023-05-25T19:45:00.729Z,10.40
2023-05-25T19:47:21.497Z,13.50
2023-05-25T19:49:27.582Z,10.23
2023-05-25T19:51:35.347Z,10.85
2023-05-25T19:53:40.992Z,9.95
2023-05-25T19:56:12.825Z,13.50
2023-05-25T19:58:20.584Z,12.77
2023-05-25T20:00:27.228Z,16.08
2023-05-25T20:02:35.558Z,14.30
2023-05-25T20:04:43.182Z,8.52
2023-05-25T20:06:48.544Z,12.52
2023-05-25T20:08:58.682Z,10.63
2023-05-25T20:11:04.106Z,10.85
2023-05-25T20:13:09.781Z,12.20
2023-05-25T20:15:15.529Z,12.70
2023-05-25T20:17:24.861Z,10.48
2023-05-25T20:19:34.184Z,12.23
2023-05-25T20:21:41.929Z,14.18
2023-05-25T20:23:47.323Z,9.88
2023-05-25T20:26:01.462Z,16.30
2023-05-25T20:28:06.858Z,11.60
2023-05-25T20:30:14.359Z,10.23
2023-05-25T20:32:25.154Z,9.30
2023-05-25T20:34:33.121Z,10.98
2023-05-25T20:36:38.764Z,11.00
2023-05-25T20:38:44.109Z,12.57
2023-05-25T20:41:11.012Z,9.90
2023-05-25T20:43:17.257Z,11.73
2023-05-25T20:45:28.954Z,12.55
2023-05-25T20:47:34.741Z,12.15
2023-05-25T20:49:42.685Z,11.93
2023-05-25T20:51:50.488Z,15.27
2023-05-25T20:53:56.119Z,10.68
2023-05-25T20:56:27.538Z,9.68
2023-05-25T20:58:32.884Z,11.85
2023-05-25T21:00:38.257Z,10.73
2023-05-25T21:02:45.008Z,12.60
2023-05-25T21:04:52.997Z,16.50
2023-05-25T21:07:02.624Z,13.55
2023-05-25T21:09:08.438Z,8.88
2023-05-25T21:11:15.212Z,11.13
2023-05-25T21:13:21.741Z,11.18
2023-05-25T21:15:28.027Z,13.25
2023-05-25T21:17:41.145Z,10.68
2023-05-25T21:19:49.090Z,13.00
2023-05-25T21:21:58.476Z,10.80
2023-05-25T21:24:04.202Z,13.98
2023-05-25T21:26:31.476Z,14.70
2023-05-25T21:28:38.605Z,11.45
2023-05-25T21:30:45.389Z,11.57
2023-05-25T21:32:51.193Z,13.97
2023-05-25T21:34:56.646Z,11.80
2023-05-25T21:37:10.956Z,17.00
2023-05-25T21:39:17.514Z,12.63
2023-05-25T21:41:23.537Z,13.10
2023-05-25T21:43:29.600Z,15.13
2023-05-25T21:45:36.063Z,14.43
2023-05-25T21:47:41.582Z,11.95
2023-05-25T21:49:56.337Z,14.27
2023-05-25T21:52:04.357Z,16.65
2023-05-25T21:54:09.727Z,12.32
2023-05-25T21:56:22.434Z,18.13
2023-05-25T21:58:28.395Z,14.65
2023-05-25T22:00:35.398Z,17.10
2023-05-25T22:02:41.174Z,14.18
2023-05-25T22:04:46.636Z,22.85
2023-05-25T22:07:02.000Z,15.52
2023-05-25T22:09:10.345Z,16.23
2023-05-25T22:11:15.765Z,18.73
2023-05-25T22:13:21.414Z,17.17
2023-05-25T22:15:27.324Z,13.13
2023-05-25T22:17:37.056Z,17.02
2023-05-25T22:19:44.871Z,17.70
2023-05-25T22:21:50.381Z,12.85
2023-05-25T22:23:56.010Z,15.80
2023-05-25T22:26:19.053Z,14.63
2023-05-25T22:28:26.728Z,15.68
2023-05-25T22:30:38.546Z,14.55
2023-05-25T22:32:43.987Z,13.77
2023-05-25T22:34:49.928Z,19.90
2023-05-25T22:37:00.051Z,14.00
2023-05-25T22:39:05.812Z,12.95
2023-05-25T22:41:13.897Z,21.88
2023-05-25T22:43:22.193Z,16.35
2023-05-25T22:45:28.070Z,14.40
2023-05-25T22:47:35.118Z,13.20
2023-05-25T22:49:44.127Z,13.05
2023-05-25T22:51:51.145Z,14.35
2023-05-25T22:54:06.474Z,17.25
2023-05-25T22:56:17.838Z,13.00
2023-05-25T22:58:23.280Z,15.73
2023-05-25T23:00:28.885Z,19.17
2023-05-25T23:02:34.419Z,16.35
2023-05-25T23:04:40.790Z,14.05
2023-05-25T23:06:50.866Z,12.50
2023-05-25T23:09:01.874Z,15.80
2023-05-25T23:11:09.702Z,22.00
2023-05-25T23:15:25.208Z,13.93
2023-05-25T23:17:37.862Z,15.88
2023-05-25T23:19:44.816Z,16.30
2023-05-25T23:21:50.577Z,16.40
2023-05-25T23:23:56.262Z,17.92
2023-05-25T23:26:13.449Z,12.98
2023-05-25T23:28:22.852Z,21.15
2023-05-25T23:30:29.362Z,17.38
2023-05-25T23:32:37.096Z,13.80
2023-05-25T23:36:49.260Z,15.00
2023-05-25T23:38:54.770Z,14.80
2023-05-25T23:41:05.279Z,12.57
2023-05-25T23:43:10.803Z,13.90
2023-05-25T23:45:19.105Z,15.23
2023-05-25T23:47:45.676Z,19.35
2023-05-25T23:49:51.115Z,16.63
2023-05-25T23:51:56.871Z,16.80
2023-05-25T23:54:05.957Z,13.65
2023-05-25T23:56:23.357Z,13.07
2023-05-25T23:58:28.786Z,14.75
